Time;durP1;ratioP1;P1;durP2;ratioP2;P2;SDS_P1;SDS_P2;PMS_P1;PMS_P2;Temp;Humidity;BMP_temperature;BMP_pressure;BME280_temperature;BME280_humidity;BME280_pressure;Samples;Min_cycle;Max_cycle;Signal;HPM_P1;HPM_P2
2023/02/18 00:00:39;;;;;;;;;8.00;8.00;;;;;15.16;65.25;102291.19;2077534;28;46186;-60
2023/02/18 00:01:40;;;;;;;;;9.33;9.33;;;;;15.16;64.88;102293.88;2091877;28;46751;-60
2023/02/18 00:02:41;;;;;;;;;10.75;10.75;;;;;15.14;64.88;102295.69;2094292;28;46384;-60
2023/02/18 00:03:41;;;;;;;;;9.33;7.33;;;;;15.11;65.16;102295.72;2079879;28;46411;-59
2023/02/18 00:04:42;;;;;;;;;8.67;8.67;;;;;15.11;64.92;102291.25;2082113;28;46189;-60
2023/02/18 00:05:42;;;;;;;;;6.67;6.67;;;;;15.10;65.07;102292.16;2082817;28;46668;-58
2023/02/18 00:06:43;;;;;;;;;8.33;8.33;;;;;15.10;65.07;102285.91;2080469;28;46630;-59
2023/02/18 00:07:44;;;;;;;;;6.50;6.50;;;;;15.08;65.40;102293.09;2080101;28;46412;-59
2023/02/18 00:08:46;;;;;;;;;9.33;9.33;;;;;15.07;64.96;102291.31;2079566;28;46852;-58
2023/02/18 00:09:47;;;;;;;;;7.25;7.25;;;;;15.06;65.36;102297.59;2079289;28;46938;-59
2023/02/18 00:10:47;;;;;;;;;7.00;7.00;;;;;15.05;65.41;102286.00;2075565;28;46573;-59
2023/02/18 00:11:48;;;;;;;;;8.67;8.67;;;;;15.06;64.85;102292.22;2076183;28;46764;-60
2023/02/18 00:12:48;;;;;;;;;6.33;6.33;;;;;15.06;65.14;102294.91;2072192;28;46480;-61
2023/02/18 00:13:54;;;;;;;;;7.00;7.00;;;;;15.05;65.32;102286.00;2080400;28;46125;-60
2023/02/18 00:14:54;;;;;;;;;8.40;8.40;;;;;15.04;65.06;102289.59;2080613;28;47023;-60
2023/02/18 00:16:00;;;;;;;;;7.67;7.67;;;;;15.04;65.24;102281.56;2080304;28;46818;-59
2023/02/18 00:17:00;;;;;;;;;8.00;8.00;;;;;15.04;64.90;102286.91;2080541;28;46879;-59
2023/02/18 00:18:00;;;;;;;;;7.67;7.33;;;;;15.02;65.25;102284.28;2080308;28;46317;-60
2023/02/18 00:19:04;;;;;;;;;8.33;8.33;;;;;15.01;65.15;102284.28;2093002;28;45690;-59
2023/02/18 00:20:05;;;;;;;;;7.50;7.50;;;;;14.97;64.53;102286.09;2094863;28;46886;-58
2023/02/18 00:21:07;;;;;;;;;5.50;5.50;;;;;14.96;65.07;102286.13;2078905;28;46887;-59
2023/02/18 00:22:07;;;;;;;;;6.50;6.50;;;;;14.93;65.05;102287.06;2096693;28;46377;-59
2023/02/18 00:23:07;;;;;;;;;5.67;5.67;;;;;14.91;64.53;102283.53;2090958;28;46453;-60
2023/02/18 00:24:10;;;;;;;;;6.00;5.67;;;;;14.90;64.83;102287.13;2072224;28;46247;-58
2023/02/18 00:25:10;;;;;;;;;8.50;7.25;;;;;14.89;64.98;102288.03;2072702;28;46352;-58
2023/02/18 00:26:13;;;;;;;;;7.67;6.67;;;;;14.91;64.85;102280.00;2073599;28;46746;-58
2023/02/18 00:27:14;;;;;;;;;8.00;8.00;;;;;14.91;64.93;102282.66;2079549;28;46204;-59
2023/02/18 00:28:15;;;;;;;;;6.00;6.00;;;;;14.90;64.75;102281.78;2074017;28;46206;-60
2023/02/18 00:29:15;;;;;;;;;7.67;7.67;;;;;14.90;64.88;102286.25;2080723;28;46404;-58
2023/02/18 00:30:16;;;;;;;;;8.00;8.00;;;;;14.88;64.99;102288.06;2080489;28;46372;-59
2023/02/18 00:31:18;;;;;;;;;6.67;6.67;;;;;14.88;64.64;102285.38;2080230;28;46373;-61
2023/02/18 00:32:19;;;;;;;;;8.50;6.50;;;;;14.85;64.91;102283.63;2080166;28;46340;-59
2023/02/18 00:33:19;;;;;;;;;4.67;4.67;;;;;14.85;64.57;102283.63;2080509;28;45673;-58
2023/02/18 00:34:20;;;;;;;;;5.67;5.33;;;;;14.85;64.82;102288.97;2075525;28;45601;-57
2023/02/18 00:35:20;;;;;;;;;5.67;5.67;;;;;14.85;65.10;102286.28;2078660;28;46333;-58
2023/02/18 00:36:21;;;;;;;;;10.00;9.67;;;;;14.84;64.79;102280.97;2080139;28;46475;-58
2023/02/18 00:37:21;;;;;;;;;8.75;7.50;;;;;14.83;65.29;102281.88;2079966;28;45741;-59
2023/02/18 00:38:22;;;;;;;;;8.00;7.67;;;;;14.82;65.23;102283.66;2080301;28;46327;-59
2023/02/18 00:39:22;;;;;;;;;7.33;6.67;;;;;14.83;64.76;102281.88;2096606;28;45259;-59
2023/02/18 00:40:22;;;;;;;;;10.33;10.33;;;;;14.81;64.79;102281.91;2087625;28;46782;-60
2023/02/18 00:41:25;;;;;;;;;9.33;9.33;;;;;14.81;64.80;102278.34;2079692;28;46341;-58
2023/02/18 00:42:25;;;;;;;;;8.25;7.50;;;;;14.82;65.05;102285.44;2072722;28;46462;-59
2023/02/18 00:43:26;;;;;;;;;7.33;7.33;;;;;14.80;64.76;102280.13;2078778;28;46445;-59
2023/02/18 00:44:26;;;;;;;;;6.75;6.75;;;;;14.80;64.73;102280.13;2079965;28;46348;-57
2023/02/18 00:45:27;;;;;;;;;8.00;8.00;;;;;14.80;65.18;102284.59;2080283;28;46684;-58
2023/02/18 00:46:28;;;;;;;;;9.00;8.00;;;;;14.79;65.19;102280.16;2094602;28;46584;-58
2023/02/18 00:47:29;;;;;;;;;7.50;7.00;;;;;14.78;64.82;102276.59;2101570;28;46865;-58
2023/02/18 00:48:29;;;;;;;;;9.00;7.33;;;;;14.77;64.93;102282.84;2072008;28;46325;-58
2023/02/18 00:49:30;;;;;;;;;8.00;8.00;;;;;14.75;65.11;102271.31;2075246;28;46375;-59
2023/02/18 00:50:30;;;;;;;;;6.67;6.67;;;;;14.77;65.20;102279.31;2079488;28;46275;-58
2023/02/18 00:51:31;;;;;;;;;6.00;6.00;;;;;14.77;64.93;102285.53;2079716;28;46119;-58
2023/02/18 00:52:31;;;;;;;;;7.00;7.00;;;;;14.77;65.34;102274.84;2076914;28;46538;-59
2023/02/18 00:53:32;;;;;;;;;7.67;7.00;;;;;14.77;65.33;102281.97;2079476;28;46448;-61
2023/02/18 00:54:33;;;;;;;;;6.00;6.00;;;;;14.77;64.82;102285.53;2080279;28;46754;-59
2023/02/18 00:55:38;;;;;;;;;6.67;6.67;;;;;14.78;65.14;102284.63;2080480;28;46371;-60
2023/02/18 00:56:39;;;;;;;;;8.00;7.50;;;;;14.77;65.06;102279.31;2080221;28;45133;-60
2023/02/18 00:57:39;;;;;;;;;7.33;6.67;;;;;14.77;65.06;102279.31;2079643;28;46496;-59
2023/02/18 00:58:39;;;;;;;;;7.33;6.67;;;;;14.78;65.40;102275.72;2079124;28;46498;-60
2023/02/18 00:59:40;;;;;;;;;6.67;6.67;;;;;14.79;65.49;102278.38;2087019;28;46323;-58
2023/02/18 01:00:40;;;;;;;;;6.00;6.00;;;;;14.79;65.19;102274.81;2087394;28;46050;-58
2023/02/18 01:01:40;;;;;;;;;5.33;5.33;;;;;14.79;65.04;102275.69;2072030;28;46318;-59
2023/02/18 01:02:41;;;;;;;;;7.00;7.00;;;;;14.79;65.16;102274.81;2079054;28;45977;-59
2023/02/18 01:03:42;;;;;;;;;9.67;9.33;;;;;14.77;64.96;102266.81;2079721;28;46742;-60
2023/02/18 01:04:43;;;;;;;;;6.75;6.75;;;;;14.76;65.18;102269.53;2080061;28;46383;-60
2023/02/18 01:05:43;;;;;;;;;7.67;7.67;;;;;14.74;65.47;102261.53;2079754;28;46196;-58
2023/02/18 01:06:44;;;;;;;;;9.00;9.00;;;;;14.74;65.27;102266.88;2083060;28;46252;-60
2023/02/18 01:07:44;;;;;;;;;6.67;6.67;;;;;14.73;65.57;102268.63;2074947;28;46571;-59
2023/02/18 01:08:44;;;;;;;;;8.67;8.67;;;;;14.75;65.32;102265.09;2073361;28;46568;-59
2023/02/18 01:09:44;;;;;;;;;6.00;6.00;;;;;14.76;65.24;102264.19;2092807;28;46124;-59
2023/02/18 01:10:47;;;;;;;;;6.33;6.33;;;;;14.76;65.36;102269.53;2093214;28;46519;-60
2023/02/18 01:11:47;;;;;;;;;7.00;7.00;;;;;14.74;65.46;102258.84;2080834;28;46929;-59
2023/02/18 01:12:47;;;;;;;;;7.33;7.33;;;;;14.74;65.52;102269.56;2078414;28;46500;-59
2023/02/18 01:13:48;;;;;;;;;7.00;6.00;;;;;14.73;65.32;102263.28;2080024;28;46372;-59
2023/02/18 01:14:48;;;;;;;;;7.33;6.33;;;;;14.73;65.39;102265.97;2082454;28;46305;-60
2023/02/18 01:15:49;;;;;;;;;8.67;7.67;;;;;14.75;65.46;102265.97;2081274;28;46273;-60
2023/02/18 01:16:49;;;;;;;;;8.50;8.25;;;;;14.76;65.63;102262.38;2081324;28;46958;-59
2023/02/18 01:17:50;;;;;;;;;7.33;7.00;;;;;14.76;65.31;102258.84;2082794;28;46614;-58
2023/02/18 01:18:51;;;;;;;;;7.50;7.50;;;;;14.77;65.22;102257.94;2080250;28;46934;-59
2023/02/18 01:19:51;;;;;;;;;7.00;6.33;;;;;14.78;65.74;102260.56;2082976;28;46571;-59
2023/02/18 01:20:52;;;;;;;;;7.00;7.00;;;;;14.79;65.31;102262.34;2083432;28;46317;-59
2023/02/18 01:21:52;;;;;;;;;5.67;5.67;;;;;14.79;65.38;102265.00;2079879;28;46429;-58
2023/02/18 01:22:52;;;;;;;;;7.00;7.00;;;;;14.80;65.78;102260.53;2082723;28;46226;-59
2023/02/18 01:23:53;;;;;;;;;6.33;6.33;;;;;14.80;65.80;102257.88;2080733;28;46146;-60
2023/02/18 01:24:53;;;;;;;;;6.67;6.67;;;;;14.80;65.45;102256.09;2080315;28;46350;-59
2023/02/18 01:25:53;;;;;;;;;8.25;8.25;;;;;14.82;65.92;102259.59;2084589;28;45682;-59
2023/02/18 01:26:54;;;;;;;;;10.00;8.00;;;;;14.83;65.39;102263.16;2088467;28;46762;-59
2023/02/18 01:27:55;;;;;;;;;9.25;9.25;;;;;14.84;65.34;102259.59;2082324;28;46644;-59
2023/02/18 01:28:55;;;;;;;;;7.00;7.00;;;;;14.84;65.45;102256.91;2081854;28;46315;-58
2023/02/18 01:29:55;;;;;;;;;8.00;7.75;;;;;14.84;65.35;102262.25;2079910;28;46668;-59
2023/02/18 01:30:56;;;;;;;;;7.67;7.33;;;;;14.86;65.40;102261.31;2079970;28;46832;-59
2023/02/18 01:31:56;;;;;;;;;8.00;8.00;;;;;14.86;65.41;102258.66;2079874;28;46196;-59
2023/02/18 01:32:57;;;;;;;;;6.33;6.33;;;;;14.86;65.75;102261.31;2082880;28;46671;-59
2023/02/18 01:33:57;;;;;;;;;8.00;8.00;;;;;14.86;65.77;102261.31;2085338;28;46470;-59
2023/02/18 01:35:00;;;;;;;;;8.00;8.00;;;;;14.85;65.44;102253.31;2079447;28;46141;-59
2023/02/18 01:36:02;;;;;;;;;8.20;7.60;;;;;14.84;65.96;102256.91;2081346;28;46344;-59
2023/02/18 01:37:02;;;;;;;;;8.20;8.20;;;;;14.83;65.74;102256.03;2080444;28;46862;-59
2023/02/18 01:38:02;;;;;;;;;9.00;9.00;;;;;14.81;65.57;102259.63;2079817;28;46451;-58
2023/02/18 01:39:05;;;;;;;;;9.67;9.67;;;;;14.80;65.81;102249.84;2080087;28;45208;-58
2023/02/18 01:40:09;;;;;;;;;10.25;9.00;;;;;14.79;66.06;102250.75;2080549;28;46646;-59
2023/02/18 01:41:10;;;;;;;;;10.00;9.25;;;;;14.78;66.26;102252.56;2086882;28;46758;-58
2023/02/18 01:42:25;;;;;;;;;9.00;9.00;;;;;14.79;66.12;102248.09;2091629;28;46596;-59
2023/02/18 01:43:25;;;;;;;;;7.75;7.75;;;;;14.79;66.15;102257.00;2080285;28;46505;-60
2023/02/18 01:44:27;;;;;;;;;8.33;8.33;;;;;14.77;66.00;102253.47;2079824;28;46284;-60
2023/02/18 01:45:33;;;;;;;;;5.25;5.25;;;;;14.77;65.96;102250.78;2080239;28;46706;-58
2023/02/18 01:46:34;;;;;;;;;9.75;9.75;;;;;14.77;65.81;102248.13;2080258;28;46999;-59
2023/02/18 01:47:34;;;;;;;;;10.75;9.25;;;;;14.77;65.98;102249.91;2079953;28;46590;-59
2023/02/18 01:48:40;;;;;;;;;8.67;8.67;;;;;14.77;65.75;102237.44;2078327;28;45592;-59
2023/02/18 01:49:42;;;;;;;;;11.00;8.75;;;;;14.77;65.70;102239.22;2071719;28;46273;-59
2023/02/18 01:50:49;;;;;;;;;8.75;8.00;;;;;14.78;65.83;102239.19;2077900;28;45781;-59
2023/02/18 01:52:01;;;;;;;;;12.40;9.60;;;;;14.76;65.88;102235.66;2079792;28;46015;-57
2023/02/18 01:53:01;;;;;;;;;9.00;9.00;;;;;14.76;66.32;102233.00;2076625;28;46592;-58
2023/02/18 01:54:13;;;;;;;;;7.67;7.67;;;;;14.75;65.89;102236.56;2078160;28;46453;-59
2023/02/18 01:55:13;;;;;;;;;12.20;9.80;;;;;14.74;66.04;102234.81;2079627;28;46965;-60
2023/02/18 01:56:21;;;;;;;;;11.33;10.00;;;;;14.74;65.97;102237.47;2079681;28;46822;-59
2023/02/18 01:57:28;;;;;;;;;10.50;8.75;;;;;14.74;66.08;102237.47;2079966;28;46567;-58
2023/02/18 01:58:28;;;;;;;;;7.00;7.00;;;;;14.73;65.91;102230.34;2076584;28;46611;-60
2023/02/18 01:59:35;;;;;;;;;11.00;10.00;;;;;14.72;65.80;102240.16;2070693;28;46297;-60
2023/02/18 02:00:36;;;;;;;;;9.00;8.50;;;;;14.71;66.01;102245.53;2078323;28;46584;-60
2023/02/18 02:01:40;;;;;;;;;10.75;10.75;;;;;14.72;66.03;102239.25;2079690;28;46168;-59
2023/02/18 02:02:44;;;;;;;;;10.00;9.00;;;;;14.72;65.57;102239.25;2072244;28;45870;-59
2023/02/18 02:03:44;;;;;;;;;10.75;9.75;;;;;14.69;65.75;102232.19;2078466;28;46504;-59
2023/02/18 02:04:45;;;;;;;;;7.67;7.67;;;;;14.66;65.53;102234.91;2081701;28;46222;-60
2023/02/18 02:05:45;;;;;;;;;8.75;8.50;;;;;14.64;65.54;102235.84;2080695;28;46288;-58
2023/02/18 02:06:46;;;;;;;;;8.00;8.00;;;;;14.62;65.93;102233.19;2079581;28;46846;-60
2023/02/18 02:07:51;;;;;;;;;8.67;5.67;;;;;14.61;65.80;102230.50;2079527;28;46553;-59
2023/02/18 02:08:57;;;;;;;;;9.00;6.00;;;;;14.59;65.88;102229.66;2080105;28;46593;-59
2023/02/18 02:09:59;;;;;;;;;10.25;9.25;;;;;14.58;65.57;102228.78;2079443;28;46790;-60
2023/02/18 02:11:14;;;;;;;;;7.25;7.25;;;;;14.57;65.38;102224.34;2075087;28;46376;-59
2023/02/18 02:12:27;;;;;;;;;9.00;9.00;;;;;14.57;65.71;102224.34;2074482;28;46587;-60
2023/02/18 02:13:54;;;;;;;;;8.25;8.25;;;;;14.56;65.74;102221.69;2078356;28;46725;-59
2023/02/18 02:15:22;;;;;;;;;10.00;9.50;;;;;14.54;65.50;102223.50;2078894;28;46723;-58
2023/02/18 02:16:41;;;;;;;;;7.75;7.75;;;;;14.53;65.67;102219.97;2075403;28;46916;-58
2023/02/18 02:17:56;;;;;;;;;8.00;8.00;;;;;14.51;65.84;102218.22;2071240;28;46986;-60
2023/02/18 02:19:15;;;;;;;;;9.75;9.75;;;;;14.50;65.46;102217.34;2078823;28;46463;-59
2023/02/18 02:20:22;;;;;;;;;10.60;10.60;;;;;14.49;65.64;102212.91;2078235;28;46445;-59
2023/02/18 02:21:22;;;;;;;;;8.50;8.50;;;;;14.49;65.48;102217.38;2078857;28;46449;-59
2023/02/18 02:22:35;;;;;;;;;8.00;8.00;;;;;14.47;65.53;102216.47;2078761;28;46857;-59
2023/02/18 02:24:12;;;;;;;;;10.75;10.75;;;;;14.47;65.55;102219.16;2070539;28;46357;-58
2023/02/18 02:25:41;;;;;;;;;7.50;7.50;;;;;14.45;65.51;102216.50;2078676;28;46589;-58
2023/02/18 02:26:50;;;;;;;;;6.00;6.00;;;;;14.46;65.60;102218.25;2077542;28;46813;-60
2023/02/18 02:28:07;;;;;;;;;7.25;7.25;;;;;14.46;65.16;102214.72;2077865;28;47196;-59
2023/02/18 02:29:42;;;;;;;;;9.25;9.25;;;;;14.46;65.17;102214.72;2078265;28;45908;-60
2023/02/18 02:31:14;;;;;;;;;8.25;8.25;;;;;14.45;65.39;102211.16;2078161;28;46574;-59
2023/02/18 02:32:41;;;;;;;;;8.00;8.00;;;;;14.43;65.62;102212.94;2046187;28;45621;-59
2023/02/18 02:33:53;;;;;;;;;9.00;9.00;;;;;14.44;65.52;102214.72;2046069;28;46617;-57
2023/02/18 02:35:09;;;;;;;;;10.00;9.25;;;;;14.42;65.34;102203.16;2045875;28;46392;-58
2023/02/18 02:36:13;;;;;;;;;9.75;9.00;;;;;14.40;65.01;102200.50;2045889;28;46667;-58
2023/02/18 02:37:51;;;;;;;;;9.00;8.50;;;;;14.41;65.15;102204.06;2045921;28;46766;-58
2023/02/18 02:39:04;;;;;;;;;9.75;9.25;;;;;14.41;64.88;102201.41;2045899;28;46699;-58
2023/02/18 02:40:23;;;;;;;;;6.50;6.00;;;;;14.41;64.98;102206.75;2045806;28;46480;-59
2023/02/18 02:41:51;;;;;;;;;6.75;6.75;;;;;14.37;64.60;102189.88;2043662;28;46677;-58
2023/02/18 02:43:14;;;;;;;;;6.25;6.25;;;;;14.35;64.81;102197.00;2038373;28;46582;-58
2023/02/18 02:44:31;;;;;;;;;7.00;5.25;;;;;14.34;64.78;102199.69;2037647;28;46847;-58
2023/02/18 02:45:53;;;;;;;;;10.00;10.00;;;;;14.31;64.47;102194.41;2044087;28;46614;-58
2023/02/18 02:47:06;;;;;;;;;5.50;5.50;;;;;14.28;64.24;102195.34;2045064;28;46952;-59
2023/02/18 02:48:22;;;;;;;;;5.25;4.25;;;;;14.27;64.30;102195.38;2039020;28;46532;-59
2023/02/18 02:49:40;;;;;;;;;6.75;6.75;;;;;14.26;64.79;102186.47;2045966;28;46728;-58
2023/02/18 02:51:05;;;;;;;;;6.00;6.00;;;;;14.28;64.45;102186.44;2046308;28;46702;-57
2023/02/18 02:52:36;;;;;;;;;8.50;8.50;;;;;14.27;64.20;102185.56;2046130;28;46242;-59
2023/02/18 02:53:39;;;;;;;;;6.50;5.50;;;;;14.29;64.77;102188.22;2037504;28;46035;-59
2023/02/18 02:54:40;;;;;;;;;7.50;7.50;;;;;14.28;64.53;102187.31;2037992;28;46890;-58
2023/02/18 02:55:40;;;;;;;;;4.33;4.33;;;;;14.28;64.61;102181.97;2038066;28;46981;-58
2023/02/18 02:56:40;;;;;;;;;7.00;6.33;;;;;14.29;64.61;102185.53;2037617;28;46572;-60
2023/02/18 02:57:51;;;;;;;;;5.33;4.67;;;;;14.30;64.55;102180.16;2045993;28;46422;-59
2023/02/18 02:58:58;;;;;;;;;7.75;7.00;;;;;14.30;64.40;102182.84;2044554;28;46703;-57
2023/02/18 03:00:03;;;;;;;;;9.00;8.00;;;;;14.31;64.38;102187.28;2038201;28;47141;-58
2023/02/18 03:01:19;;;;;;;;;4.00;4.00;;;;;14.30;64.33;102184.63;2037424;28;46742;-58
2023/02/18 03:02:28;;;;;;;;;6.75;6.75;;;;;14.28;64.04;102186.44;2038288;28;45706;-59
2023/02/18 03:03:48;;;;;;;;;7.50;7.50;;;;;14.27;64.25;102180.22;2037429;28;46251;-57
2023/02/18 03:04:57;;;;;;;;;8.00;7.00;;;;;14.28;64.28;102183.78;2037900;28;46409;-59
2023/02/18 03:06:31;;;;;;;;;6.00;6.00;;;;;14.30;64.41;102185.50;2045396;28;46911;-59
2023/02/18 03:07:50;;;;;;;;;7.50;7.50;;;;;14.30;63.99;102185.50;2041898;28;46809;-59
2023/02/18 03:09:00;;;;;;;;;7.00;6.00;;;;;14.31;63.93;102187.28;2033713;28;46311;-58
2023/02/18 03:10:37;;;;;;;;;5.75;5.75;;;;;14.29;64.30;102181.06;2050588;28;46912;-58
2023/02/18 03:12:09;;;;;;;;;5.00;5.00;;;;;14.29;64.26;102174.84;2064616;28;46465;-59
2023/02/18 03:13:24;;;;;;;;;5.50;5.50;;;;;14.31;64.16;102186.41;2064909;28;46601;-59
2023/02/18 03:14:46;;;;;;;;;8.00;6.00;;;;;14.29;64.04;102183.75;2064765;28;46084;-60
2023/02/18 03:15:50;;;;;;;;;7.00;7.00;;;;;14.31;64.33;102184.59;2062975;28;46319;-58
2023/02/18 03:17:20;;;;;;;;;7.25;6.75;;;;;14.32;63.98;102182.81;2062563;28;46393;-58
2023/02/18 03:18:36;;;;;;;;;8.00;8.00;;;;;14.31;64.05;102173.94;2063770;28;46920;-59
2023/02/18 03:19:48;;;;;;;;;8.00;8.00;;;;;14.30;63.81;102181.97;2064461;28;46380;-60
2023/02/18 03:21:04;;;;;;;;;8.25;8.25;;;;;14.28;63.95;102175.75;2064459;28;45993;-60
2023/02/18 03:22:15;;;;;;;;;6.00;6.00;;;;;14.28;64.02;102178.44;2062143;28;46614;-59
2023/02/18 03:23:23;;;;;;;;;6.00;6.00;;;;;14.26;63.55;102182.91;2062290;28;46440;-60
2023/02/18 03:24:38;;;;;;;;;7.00;7.00;;;;;14.25;63.73;102174.03;2064196;28;46607;-60
2023/02/18 03:25:39;;;;;;;;;6.50;6.50;;;;;14.24;63.67;102168.72;2064245;28;46540;-59
2023/02/18 03:26:45;;;;;;;;;7.00;7.00;;;;;14.23;63.75;102169.59;2062090;28;46804;-59
2023/02/18 03:27:53;;;;;;;;;7.00;7.00;;;;;14.20;63.66;102173.19;2054092;28;45690;-59
2023/02/18 03:28:57;;;;;;;;;10.75;7.75;;;;;14.21;63.93;102174.06;2056085;28;46472;-60
2023/02/18 03:30:07;;;;;;;;;8.75;7.50;;;;;14.21;64.03;102172.28;2062057;28;46504;-58
2023/02/18 03:31:11;;;;;;;;;7.00;7.00;;;;;14.20;64.02;102178.53;2072214;28;47683;-58
2023/02/18 03:32:18;;;;;;;;;9.25;9.25;;;;;14.20;63.38;102167.84;2079041;28;47234;-59
2023/02/18 03:33:27;;;;;;;;;7.25;7.25;;;;;14.19;63.71;102171.41;2079278;28;46453;-60
2023/02/18 03:34:37;;;;;;;;;8.00;8.00;;;;;14.19;64.04;102168.75;2079819;28;45330;-60
2023/02/18 03:35:37;;;;;;;;;7.75;7.75;;;;;14.21;64.02;102168.72;2079387;28;46625;-59
2023/02/18 03:36:39;;;;;;;;;5.00;5.00;;;;;14.20;63.76;102173.19;2079805;28;46462;-58
2023/02/18 03:37:49;;;;;;;;;6.50;6.50;;;;;14.20;63.94;102167.84;2079889;28;46965;-58
2023/02/18 03:38:56;;;;;;;;;8.25;8.25;;;;;14.20;63.74;102167.84;2080522;28;46535;-59
2023/02/18 03:40:00;;;;;;;;;8.50;8.50;;;;;14.21;64.15;102169.59;2080484;28;46367;-60
2023/02/18 03:41:00;;;;;;;;;6.50;6.50;;;;;14.22;64.19;102171.38;2080636;28;46646;-58
2023/02/18 03:42:00;;;;;;;;;7.00;7.00;;;;;14.23;63.91;102165.16;2080742;28;46655;-58
2023/02/18 03:43:01;;;;;;;;;9.67;8.33;;;;;14.24;63.82;102161.59;2080460;28;46536;-58
2023/02/18 03:44:07;;;;;;;;;8.67;8.67;;;;;14.26;64.10;102164.22;2080820;28;47130;-59
2023/02/18 03:45:07;;;;;;;;;8.75;8.00;;;;;14.26;63.65;102166.91;2080907;28;46871;-59
2023/02/18 03:46:07;;;;;;;;;8.33;8.33;;;;;14.26;63.61;102166.91;2080699;28;46343;-60
2023/02/18 03:47:08;;;;;;;;;7.00;7.00;;;;;14.26;63.75;102166.91;2080323;28;46315;-59
2023/02/18 03:48:08;;;;;;;;;8.33;8.33;;;;;14.25;63.53;102163.34;2079830;28;46876;-60
2023/02/18 03:49:13;;;;;;;;;8.67;7.67;;;;;14.25;63.19;102160.69;2080400;28;46731;-60
2023/02/18 03:50:13;;;;;;;;;4.50;4.50;;;;;14.24;62.99;102166.03;2080833;28;46447;-60
2023/02/18 03:51:13;;;;;;;;;7.00;6.00;;;;;14.22;62.66;102163.34;2080798;28;46492;-60
2023/02/18 03:52:14;;;;;;;;;6.00;6.00;;;;;14.19;62.73;102171.41;2080686;28;45125;-59
2023/02/18 03:53:14;;;;;;;;;6.67;6.67;;;;;14.18;62.66;102172.31;2080458;28;45517;-59
2023/02/18 03:54:15;;;;;;;;;7.67;7.67;;;;;14.16;62.60;102166.13;2081314;28;46257;-59
2023/02/18 03:55:15;;;;;;;;;7.67;7.67;;;;;14.14;62.52;102171.50;2080946;28;45417;-61
2023/02/18 03:56:16;;;;;;;;;5.33;5.33;;;;;14.13;62.54;102168.84;2096366;28;45579;-58
2023/02/18 03:57:16;;;;;;;;;7.00;5.50;;;;;14.13;62.59;102174.19;2096771;28;46979;-59
2023/02/18 03:58:17;;;;;;;;;8.00;7.00;;;;;14.13;62.38;102169.72;2087583;28;46218;-58
2023/02/18 03:59:17;;;;;;;;;5.00;5.00;;;;;14.15;62.38;102169.72;2087961;28;46167;-57
2023/02/18 04:00:19;;;;;;;;;7.00;7.00;;;;;14.16;62.49;102167.91;2080525;28;46390;-59
2023/02/18 04:01:19;;;;;;;;;6.00;6.00;;;;;14.17;62.42;102167.00;2080878;28;47013;-58
2023/02/18 04:02:19;;;;;;;;;5.00;5.00;;;;;14.17;62.55;102164.34;2080536;28;46514;-60
2023/02/18 04:03:20;;;;;;;;;7.33;7.33;;;;;14.17;62.21;102169.69;2080752;28;46603;-58
2023/02/18 04:04:20;;;;;;;;;8.00;8.00;;;;;14.16;62.15;102170.59;2096576;28;45404;-59
2023/02/18 04:05:20;;;;;;;;;6.33;5.33;;;;;14.16;62.51;102167.91;2096340;28;46628;-60
2023/02/18 04:06:22;;;;;;;;;9.33;8.33;;;;;14.15;62.20;102169.72;2080231;28;46582;-59
2023/02/18 04:07:22;;;;;;;;;9.00;9.00;;;;;14.15;62.45;102180.38;2080842;28;46057;-58
2023/02/18 04:08:22;;;;;;;;;7.67;7.00;;;;;14.14;62.07;102167.94;2096353;28;46339;-58
2023/02/18 04:09:23;;;;;;;;;6.00;6.00;;;;;14.15;62.15;102164.38;2096463;28;46871;-57
2023/02/18 04:10:23;;;;;;;;;8.00;8.00;;;;;14.14;61.91;102157.25;2080214;28;46673;-59
2023/02/18 04:11:23;;;;;;;;;6.33;6.33;;;;;14.14;62.08;102173.28;2073735;28;46043;-60
2023/02/18 04:12:24;;;;;;;;;7.00;7.00;;;;;14.13;62.06;102172.41;2078207;28;46250;-59
2023/02/18 04:13:24;;;;;;;;;6.67;6.67;;;;;14.13;61.75;102168.84;2077647;28;46402;-60
2023/02/18 04:14:24;;;;;;;;;7.00;7.00;;;;;14.12;61.80;102167.97;2080318;28;46205;-60
2023/02/18 04:15:25;;;;;;;;;6.00;6.00;;;;;14.10;62.21;102174.19;2080660;28;46235;-61
2023/02/18 04:16:25;;;;;;;;;8.67;7.67;;;;;14.10;61.36;102175.13;2080246;28;46452;-59
2023/02/18 04:17:26;;;;;;;;;8.00;8.00;;;;;14.09;61.76;102177.78;2080689;28;46569;-61
2023/02/18 04:18:26;;;;;;;;;6.00;6.00;;;;;14.08;61.57;102179.56;2080631;28;46854;-61
2023/02/18 04:19:26;;;;;;;;;7.00;7.00;;;;;14.07;61.87;102167.13;2080128;28;46624;-59
2023/02/18 04:20:27;;;;;;;;;5.33;5.33;;;;;14.07;61.76;102175.13;2072544;28;46202;-60
2023/02/18 04:21:27;;;;;;;;;7.00;7.00;;;;;14.08;61.85;102166.22;2077399;28;46168;-59
2023/02/18 04:22:27;;;;;;;;;7.75;7.75;;;;;14.08;61.95;102173.34;2080461;28;46310;-59
2023/02/18 04:23:28;;;;;;;;;7.50;7.50;;;;;14.08;61.76;102171.56;2080670;28;46200;-59
2023/02/18 04:24:28;;;;;;;;;5.67;5.67;;;;;14.09;62.05;102173.31;2080552;28;46558;-60
2023/02/18 04:25:29;;;;;;;;;8.00;8.00;;;;;14.08;61.70;102176.91;2080467;28;46413;-60
2023/02/18 04:26:29;;;;;;;;;7.67;7.67;;;;;14.08;61.93;102170.69;2080483;28;46361;-59
2023/02/18 04:27:29;;;;;;;;;7.75;7.25;;;;;14.08;61.38;102173.34;2080532;28;46566;-59
2023/02/18 04:28:30;;;;;;;;;10.00;10.00;;;;;14.08;61.59;102173.34;2078097;28;45543;-59
2023/02/18 04:29:30;;;;;;;;;9.00;9.00;;;;;14.07;61.52;102169.78;2078779;28;46245;-58
2023/02/18 04:30:31;;;;;;;;;6.33;6.33;;;;;14.06;61.34;102173.38;2080362;28;46257;-60
2023/02/18 04:31:31;;;;;;;;;6.67;6.67;;;;;14.06;61.43;102168.03;2080045;28;46841;-58
2023/02/18 04:32:32;;;;;;;;;6.33;6.33;;;;;14.07;61.81;102168.91;2080405;28;46639;-59
2023/02/18 04:33:32;;;;;;;;;6.67;6.67;;;;;14.07;61.80;102172.47;2080622;28;45505;-58
2023/02/18 04:34:32;;;;;;;;;6.00;6.00;;;;;14.07;61.81;102172.47;2074119;28;46228;-59
2023/02/18 04:35:33;;;;;;;;;6.75;6.75;;;;;14.08;61.74;102171.56;2073885;28;46324;-58
2023/02/18 04:36:33;;;;;;;;;8.00;7.00;;;;;14.09;61.63;102169.78;2080286;28;46461;-59
2023/02/18 04:37:34;;;;;;;;;6.50;6.50;;;;;14.09;61.80;102167.97;2080128;28;46290;-59
2023/02/18 04:38:34;;;;;;;;;7.75;7.00;;;;;14.09;61.41;102173.31;2080460;28;46789;-59
2023/02/18 04:39:34;;;;;;;;;6.25;6.00;;;;;14.07;61.60;102167.13;2080287;28;45529;-60
2023/02/18 04:40:35;;;;;;;;;6.00;6.00;;;;;14.06;61.64;102170.69;2080086;28;46371;-60
2023/02/18 04:41:35;;;;;;;;;6.75;6.75;;;;;14.06;61.31;102167.16;2080174;28;46281;-59
2023/02/18 04:42:36;;;;;;;;;5.00;5.00;;;;;14.05;61.45;102170.72;2080456;28;46789;-60
2023/02/18 04:43:36;;;;;;;;;6.00;4.00;;;;;14.04;61.20;102168.97;2080290;28;46027;-59
2023/02/18 04:44:37;;;;;;;;;6.33;6.33;;;;;14.05;61.29;102165.38;2080146;28;46389;-59
2023/02/18 04:45:37;;;;;;;;;5.67;5.00;;;;;14.06;61.62;102167.16;2079991;28;46070;-59
2023/02/18 04:46:37;;;;;;;;;6.25;6.25;;;;;14.07;61.64;102168.91;2080419;28;46318;-60
2023/02/18 04:47:38;;;;;;;;;5.33;5.33;;;;;14.08;61.50;102166.22;2087080;28;46485;-59
2023/02/18 04:48:38;;;;;;;;;8.33;8.33;;;;;14.10;61.63;102163.53;2080478;28;46269;-59
2023/02/18 04:49:39;;;;;;;;;7.00;7.00;;;;;14.10;61.25;102166.19;2080375;28;46001;-57
2023/02/18 04:50:39;;;;;;;;;7.00;7.00;;;;;14.11;61.51;102166.19;2080146;28;45546;-58
2023/02/18 04:51:39;;;;;;;;;6.00;6.00;;;;;14.11;61.16;102160.88;2080213;28;46177;-59
2023/02/18 04:52:39;;;;;;;;;5.33;5.33;;;;;14.13;61.66;102163.50;2087260;28;45043;-59
2023/02/18 04:53:40;;;;;;;;;6.33;6.33;;;;;14.13;61.48;102155.50;2088023;28;46232;-59
2023/02/18 04:54:40;;;;;;;;;6.33;6.33;;;;;14.16;61.10;102160.78;2077083;28;46418;-58
2023/02/18 04:55:40;;;;;;;;;6.00;6.00;;;;;14.17;61.38;102162.56;2079908;28;46258;-58
2023/02/18 04:56:41;;;;;;;;;4.00;4.00;;;;;14.20;61.09;102156.28;2080171;28;46550;-58
2023/02/18 04:57:41;;;;;;;;;6.33;6.33;;;;;14.20;61.37;102151.81;2080268;28;46780;-57
2023/02/18 04:58:41;;;;;;;;;6.33;6.33;;;;;14.20;61.06;102153.63;2078852;28;46695;-59
2023/02/18 04:59:42;;;;;;;;;8.00;7.00;;;;;14.20;61.30;102148.28;2078066;28;46781;-59
2023/02/18 05:00:43;;;;;;;;;7.00;7.00;;;;;14.21;60.86;102155.38;2079192;28;46466;-58